createdAt,value
2018-06-19T00:00:38.607Z,19.10
2018-06-19T00:03:42.071Z,18.90
2018-06-19T00:06:45.060Z,19.00
2018-06-19T00:09:48.851Z,19.00
2018-06-19T00:12:52.171Z,19.00
2018-06-19T00:15:55.158Z,18.90
2018-06-19T00:19:00.318Z,19.00
2018-06-19T00:22:03.597Z,19.00
2018-06-19T00:25:06.965Z,18.90
2018-06-19T00:28:10.190Z,18.90
2018-06-19T00:31:13.203Z,18.80
2018-06-19T00:34:16.481Z,18.70
2018-06-19T00:37:19.953Z,18.70
2018-06-19T00:40:23.131Z,18.60
2018-06-19T00:43:26.286Z,18.50
2018-06-19T00:46:30.167Z,18.50
2018-06-19T00:49:33.129Z,18.60
2018-06-19T00:52:36.161Z,18.60
2018-06-19T00:55:39.131Z,18.40
2018-06-19T00:58:42.281Z,18.40
2018-06-19T01:01:45.247Z,18.50
2018-06-19T01:04:48.218Z,18.40
2018-06-19T01:07:51.264Z,18.40
2018-06-19T01:10:54.193Z,18.50
2018-06-19T01:13:57.153Z,18.60
2018-06-19T01:17:00.083Z,18.60
2018-06-19T01:20:05.558Z,18.50
2018-06-19T01:23:08.503Z,18.40
2018-06-19T01:26:11.461Z,18.20
2018-06-19T01:29:14.363Z,18.30
2018-06-19T01:32:17.849Z,18.40
2018-06-19T01:35:20.782Z,18.40
2018-06-19T01:38:23.903Z,18.40
2018-06-19T01:41:26.805Z,18.30
2018-06-19T01:44:30.429Z,18.40
2018-06-19T01:47:33.379Z,18.40
2018-06-19T01:50:36.489Z,18.20
2018-06-19T01:56:42.428Z,18.20
2018-06-19T01:59:45.340Z,18.30
2018-06-19T02:02:48.310Z,18.30
2018-06-19T02:05:51.242Z,18.30
2018-06-19T02:08:54.205Z,18.30
2018-06-19T02:11:57.177Z,18.30
2018-06-19T02:15:00.117Z,18.20
2018-06-19T02:18:03.065Z,18.00
2018-06-19T02:21:06.025Z,18.10
2018-06-19T02:24:08.944Z,18.10
2018-06-19T02:27:11.846Z,18.10
2018-06-19T02:30:14.814Z,18.10
2018-06-19T02:33:17.734Z,18.10
2018-06-19T02:36:20.674Z,18.10
2018-06-19T02:39:23.619Z,18.10
2018-06-19T02:42:26.563Z,18.00
2018-06-19T02:45:29.502Z,18.00
2018-06-19T02:48:32.447Z,18.00
2018-06-19T02:51:35.377Z,17.90
2018-06-19T02:54:38.317Z,18.00
2018-06-19T02:57:41.282Z,18.00
2018-06-19T03:00:44.202Z,18.10
2018-06-19T03:03:47.162Z,18.20
2018-06-19T03:06:52.437Z,18.10
2018-06-19T03:09:55.358Z,18.10
2018-06-19T03:12:58.310Z,17.90
2018-06-19T03:16:01.247Z,17.80
2018-06-19T03:19:04.197Z,17.80
2018-06-19T03:22:07.119Z,17.80
2018-06-19T03:25:10.073Z,17.70
2018-06-19T03:28:13.037Z,17.70
2018-06-19T03:31:15.976Z,17.70
2018-06-19T03:34:18.944Z,17.70
2018-06-19T03:37:21.921Z,17.80
2018-06-19T03:40:24.884Z,17.80
2018-06-19T03:43:27.849Z,17.70
2018-06-19T03:46:30.813Z,17.80
2018-06-19T03:49:33.727Z,17.80
2018-06-19T03:52:36.647Z,17.60
2018-06-19T03:55:39.555Z,17.60
2018-06-19T03:58:42.530Z,17.50
2018-06-19T04:01:45.462Z,17.60
2018-06-19T04:07:51.302Z,17.60
2018-06-19T04:11:13.900Z,17.50
2018-06-19T04:14:16.882Z,17.60
2018-06-19T04:17:23.809Z,17.50
2018-06-19T04:20:26.809Z,17.50
2018-06-19T04:23:30.206Z,17.60
2018-06-19T04:26:33.750Z,17.70
2018-06-19T04:29:36.700Z,17.70
2018-06-19T04:32:44.373Z,17.60
2018-06-19T04:35:47.454Z,17.50
2018-06-19T04:38:50.424Z,17.50
2018-06-19T04:41:53.336Z,17.60
2018-06-19T04:44:56.281Z,17.60
2018-06-19T04:47:59.202Z,17.60
2018-06-19T04:51:02.135Z,17.40
2018-06-19T04:54:05.132Z,17.40
2018-06-19T04:57:08.055Z,17.50
2018-06-19T05:00:10.973Z,17.50
2018-06-19T05:03:14.021Z,17.50
2018-06-19T05:09:19.907Z,17.50
2018-06-19T05:12:22.845Z,17.40
2018-06-19T05:15:26.117Z,17.40
2018-06-19T05:18:29.042Z,17.30
2018-06-19T05:24:42.265Z,17.30
2018-06-19T05:27:45.240Z,17.40
2018-06-19T05:30:48.178Z,17.30
2018-06-19T05:33:57.845Z,17.40
2018-06-19T05:37:00.812Z,17.40
2018-06-19T05:40:04.134Z,17.50
2018-06-19T05:43:07.073Z,17.50
2018-06-19T05:46:09.994Z,17.60
2018-06-19T05:49:12.954Z,17.60
2018-06-19T05:52:15.907Z,17.60
2018-06-19T05:55:18.851Z,17.60
2018-06-19T05:58:21.831Z,17.60
2018-06-19T06:01:24.827Z,17.60
2018-06-19T06:04:27.852Z,17.50
2018-06-19T06:07:32.398Z,17.50
2018-06-19T06:10:36.159Z,17.60
2018-06-19T06:13:39.114Z,17.60
2018-06-19T06:16:42.190Z,17.60
2018-06-19T06:19:45.065Z,17.60
2018-06-19T06:22:47.995Z,17.70
2018-06-19T06:25:50.953Z,17.80
2018-06-19T06:28:53.855Z,17.70
2018-06-19T06:31:56.816Z,17.80
2018-06-19T06:34:59.757Z,17.80
2018-06-19T06:38:02.782Z,17.70
2018-06-19T06:41:05.773Z,17.60
2018-06-19T06:44:08.678Z,17.60
2018-06-19T06:47:11.607Z,17.60
2018-06-19T06:50:14.633Z,17.50
2018-06-19T06:53:17.561Z,17.70
2018-06-19T06:56:20.525Z,17.80
2018-06-19T06:59:23.538Z,17.80
2018-06-19T07:05:29.363Z,18.00
2018-06-19T07:08:32.290Z,18.10
2018-06-19T07:11:35.210Z,18.20
2018-06-19T07:14:38.172Z,18.20
2018-06-19T07:17:41.125Z,18.20
2018-06-19T07:20:44.046Z,18.10
2018-06-19T07:23:46.987Z,18.20
2018-06-19T07:26:49.908Z,18.20
2018-06-19T07:29:52.853Z,18.10
2018-06-19T07:32:55.881Z,18.10
2018-06-19T07:35:58.815Z,18.00
2018-06-19T07:39:02.205Z,18.00
2018-06-19T07:42:05.158Z,18.00
2018-06-19T07:45:08.088Z,18.00
2018-06-19T07:48:11.004Z,18.00
2018-06-19T07:51:13.990Z,18.10
2018-06-19T07:54:16.941Z,18.10
2018-06-19T07:57:20.353Z,18.10
2018-06-19T08:00:23.907Z,18.00
2018-06-19T08:03:26.826Z,18.00
2018-06-19T08:07:33.340Z,18.00
2018-06-19T08:10:36.279Z,18.10
2018-06-19T08:13:39.253Z,18.10
2018-06-19T08:16:42.209Z,18.20
2018-06-19T08:19:45.169Z,18.20
2018-06-19T08:22:48.151Z,18.00
2018-06-19T08:25:51.095Z,18.20
2018-06-19T08:28:54.378Z,18.20
2018-06-19T08:31:57.335Z,18.20
2018-06-19T08:35:00.248Z,18.10
2018-06-19T08:38:03.193Z,18.30
2018-06-19T08:41:06.744Z,18.30
2018-06-19T08:44:09.806Z,18.20
2018-06-19T08:47:12.736Z,18.20
2018-06-19T08:50:15.702Z,18.20
2018-06-19T08:53:18.681Z,18.20
2018-06-19T08:56:21.646Z,18.10
2018-06-19T08:59:24.601Z,18.20
2018-06-19T09:02:27.553Z,18.40
2018-06-19T09:05:30.602Z,18.40
2018-06-19T09:08:33.542Z,18.40
2018-06-19T09:11:36.485Z,18.40
2018-06-19T09:14:39.385Z,18.40
2018-06-19T09:17:42.334Z,18.40
2018-06-19T09:20:45.261Z,18.30
2018-06-19T09:23:49.744Z,18.30
2018-06-19T09:26:52.741Z,18.20
2018-06-19T09:29:55.677Z,18.30
2018-06-19T09:36:01.534Z,18.50
2018-06-19T09:39:08.007Z,18.60
2018-06-19T09:42:17.757Z,18.60
2018-06-19T09:45:20.762Z,18.60
2018-06-19T09:48:23.883Z,18.50
2018-06-19T09:51:26.995Z,18.60
2018-06-19T09:54:29.995Z,18.70
2018-06-19T09:57:33.034Z,18.80
2018-06-19T10:00:36.481Z,18.80
2018-06-19T10:03:39.550Z,18.90
2018-06-19T10:06:42.643Z,18.90
2018-06-19T10:09:45.602Z,18.70
2018-06-19T10:12:48.675Z,18.60
2018-06-19T10:15:51.609Z,18.60
2018-06-19T10:18:54.566Z,18.60
2018-06-19T10:21:57.494Z,18.60
2018-06-19T10:28:03.454Z,18.70
2018-06-19T10:31:06.511Z,18.90
2018-06-19T10:34:09.431Z,18.90
2018-06-19T10:37:12.453Z,18.90
2018-06-19T10:40:15.472Z,18.90
2018-06-19T10:43:18.422Z,18.90
2018-06-19T10:46:21.792Z,18.90
2018-06-19T10:49:24.898Z,18.80
2018-06-19T10:52:28.026Z,18.80
2018-06-19T10:55:31.065Z,18.90
2018-06-19T10:58:34.040Z,18.90
2018-06-19T11:01:37.106Z,18.90
2018-06-19T11:04:43.037Z,18.90
2018-06-19T11:07:46.223Z,19.00
2018-06-19T11:10:49.500Z,19.10
2018-06-19T11:13:52.489Z,19.20
2018-06-19T11:16:55.496Z,19.30
2018-06-19T11:19:58.530Z,19.30
2018-06-19T11:23:01.519Z,19.30
2018-06-19T11:26:04.627Z,19.10
2018-06-19T11:29:07.610Z,19.10
2018-06-19T11:32:10.657Z,19.20
2018-06-19T11:35:13.654Z,19.30
2018-06-19T11:38:16.646Z,19.30
2018-06-19T11:41:20.061Z,19.40
2018-06-19T11:44:23.097Z,19.40
2018-06-19T11:47:26.056Z,19.40
2018-06-19T11:50:29.048Z,19.40
2018-06-19T11:53:32.109Z,19.30
2018-06-19T11:56:35.131Z,19.40
2018-06-19T11:59:38.121Z,19.40
2018-06-19T12:02:41.146Z,19.40
2018-06-19T12:05:44.150Z,19.40
2018-06-19T12:08:47.098Z,19.40
2018-06-19T12:11:50.349Z,19.50
2018-06-19T12:14:53.376Z,19.60
2018-06-19T12:17:56.344Z,19.70
2018-06-19T12:20:59.585Z,19.80
2018-06-19T12:24:02.709Z,19.80
2018-06-19T12:27:05.947Z,19.90
2018-06-19T12:30:08.918Z,19.90
2018-06-19T12:33:11.941Z,19.90
2018-06-19T12:36:14.874Z,19.90
2018-06-19T12:39:17.799Z,20.00
2018-06-19T12:42:21.156Z,20.00
2018-06-19T12:45:24.097Z,20.00
2018-06-19T12:48:27.065Z,20.00
2018-06-19T12:51:52.640Z,20.00
2018-06-19T12:55:40.659Z,19.90
2018-06-19T12:58:43.996Z,20.00
2018-06-19T13:01:46.980Z,20.00
2018-06-19T13:05:07.351Z,20.10
2018-06-19T13:08:10.272Z,20.00
2018-06-19T13:11:13.256Z,20.20
2018-06-19T13:14:35.869Z,20.20
2018-06-19T13:17:56.168Z,20.10
2018-06-19T13:20:59.156Z,20.10
2018-06-19T13:24:02.078Z,20.10
2018-06-19T13:27:05.068Z,20.10
2018-06-19T13:30:25.287Z,20.20
2018-06-19T13:33:28.256Z,20.20
2018-06-19T13:36:31.179Z,20.30
2018-06-19T13:39:34.830Z,20.30
2018-06-19T13:43:53.264Z,20.40
2018-06-19T13:46:56.195Z,20.50
2018-06-19T13:49:59.168Z,20.60
2018-06-19T13:53:02.149Z,20.50
2018-06-19T13:57:28.349Z,20.60
2018-06-19T14:00:31.328Z,20.70
2018-06-19T14:03:34.369Z,20.80
2018-06-19T14:06:37.346Z,20.90
2018-06-19T14:10:05.877Z,21.00
2018-06-19T14:13:08.900Z,21.10
2018-06-19T14:16:11.898Z,21.30
2018-06-19T14:19:14.893Z,21.30
2018-06-19T14:22:17.900Z,21.20
2018-06-19T14:25:21.171Z,21.30
2018-06-19T14:28:24.126Z,21.40
2018-06-19T14:31:27.103Z,21.40
2018-06-19T14:34:30.052Z,21.50
2018-06-19T14:37:32.977Z,21.40
2018-06-19T14:40:35.919Z,21.40
2018-06-19T14:43:38.854Z,21.50
2018-06-19T14:46:41.861Z,21.50
2018-06-19T14:49:44.746Z,21.40
2018-06-19T14:52:47.708Z,21.20
2018-06-19T14:55:50.651Z,21.20
2018-06-19T14:58:53.593Z,21.20
2018-06-19T15:01:56.589Z,21.10
2018-06-19T15:04:59.587Z,21.10
2018-06-19T15:08:02.559Z,21.10
2018-06-19T15:11:05.483Z,21.00
2018-06-19T15:14:08.456Z,21.00
2018-06-19T15:17:11.473Z,21.00
2018-06-19T15:20:14.525Z,21.00
2018-06-19T15:23:17.492Z,21.10
2018-06-19T15:26:20.430Z,21.20
2018-06-19T15:29:23.392Z,21.10
2018-06-19T15:32:26.314Z,21.10
2018-06-19T15:35:29.257Z,21.10
2018-06-19T15:38:32.215Z,21.10
2018-06-19T15:41:35.186Z,21.00
2018-06-19T15:44:38.128Z,21.00
2018-06-19T15:47:41.072Z,21.00
2018-06-19T15:50:43.998Z,21.10
2018-06-19T15:53:46.914Z,21.10
2018-06-19T15:56:50.090Z,21.10
2018-06-19T15:59:54.447Z,21.20
2018-06-19T16:02:58.141Z,21.20
2018-06-19T16:06:01.671Z,21.20
2018-06-19T16:09:08.541Z,21.20
2018-06-19T16:12:12.673Z,21.20
2018-06-19T16:15:15.905Z,21.20
2018-06-19T16:18:19.101Z,21.20
2018-06-19T16:21:22.607Z,21.20
2018-06-19T16:24:25.632Z,21.10
2018-06-19T16:27:29.364Z,21.10
2018-06-19T16:30:32.797Z,21.10
2018-06-19T16:33:36.522Z,21.20
2018-06-19T16:36:39.689Z,21.20
2018-06-19T16:39:42.761Z,21.10
2018-06-19T16:42:45.772Z,21.10
2018-06-19T16:45:48.964Z,21.10
2018-06-19T16:48:51.923Z,21.10
2018-06-19T16:51:54.869Z,21.10
2018-06-19T16:54:57.816Z,21.10
2018-06-19T16:58:00.788Z,21.10
2018-06-19T17:01:03.784Z,21.00
2018-06-19T17:04:06.698Z,21.00
2018-06-19T17:07:09.610Z,21.00
2018-06-19T17:10:13.624Z,21.00
2018-06-19T17:13:16.565Z,20.90
2018-06-19T17:16:19.499Z,21.00
2018-06-19T17:19:22.471Z,20.90
2018-06-19T17:22:25.435Z,20.90
2018-06-19T17:25:28.429Z,20.90
2018-06-19T17:28:31.378Z,20.90
2018-06-19T17:31:34.313Z,20.90
2018-06-19T17:34:37.278Z,20.90
2018-06-19T17:37:40.250Z,20.80
2018-06-19T17:40:43.213Z,20.80
2018-06-19T17:43:46.282Z,20.80
2018-06-19T17:46:49.226Z,20.90
2018-06-19T17:49:52.180Z,20.90
2018-06-19T17:52:55.125Z,20.90
2018-06-19T17:55:58.082Z,20.80
2018-06-19T17:59:01.052Z,20.80
2018-06-19T18:02:04.128Z,20.80
2018-06-19T18:05:07.120Z,20.80
2018-06-19T18:08:10.075Z,20.80
2018-06-19T18:11:13.022Z,20.80
2018-06-19T18:14:16.294Z,20.80
2018-06-19T18:17:19.416Z,20.80
2018-06-19T18:20:22.367Z,20.80
2018-06-19T18:23:25.337Z,20.80
2018-06-19T18:26:28.301Z,20.80
2018-06-19T18:29:31.229Z,20.70
2018-06-19T18:32:34.179Z,20.70
2018-06-19T18:35:37.120Z,20.70
2018-06-19T18:38:40.074Z,20.70
2018-06-19T18:41:42.998Z,20.80
2018-06-19T18:44:46.014Z,20.70
2018-06-19T18:47:48.935Z,20.70
2018-06-19T18:50:51.901Z,20.70
2018-06-19T18:53:54.902Z,20.70
2018-06-19T18:56:58.630Z,20.60
2018-06-19T19:00:02.353Z,20.60
2018-06-19T19:03:06.860Z,20.60
2018-06-19T19:06:10.253Z,20.60
2018-06-19T19:09:13.277Z,20.60
2018-06-19T19:12:16.663Z,20.60
2018-06-19T19:15:25.705Z,20.60
2018-06-19T19:18:35.029Z,20.60
2018-06-19T19:21:39.114Z,20.50
2018-06-19T19:24:42.579Z,20.50
2018-06-19T19:27:51.836Z,20.50
2018-06-19T19:30:55.119Z,20.50
2018-06-19T19:33:58.344Z,20.40
2018-06-19T19:37:07.303Z,20.40
2018-06-19T19:40:10.397Z,20.40
2018-06-19T19:43:14.855Z,20.40
2018-06-19T19:46:25.101Z,20.40
2018-06-19T19:49:28.361Z,20.30
2018-06-19T19:52:31.829Z,20.30
2018-06-19T19:55:39.438Z,20.30
2018-06-19T19:58:48.697Z,20.20
2018-06-19T20:01:51.893Z,20.20
2018-06-19T20:04:55.414Z,20.20
2018-06-19T20:07:58.908Z,20.20
2018-06-19T20:11:02.645Z,20.20
2018-06-19T20:14:06.302Z,20.20
2018-06-19T20:17:09.589Z,20.20
2018-06-19T20:20:13.509Z,20.20
2018-06-19T20:23:16.554Z,20.10
2018-06-19T20:26:19.894Z,20.20
2018-06-19T20:29:23.611Z,20.20
2018-06-19T20:32:26.650Z,20.20
2018-06-19T20:35:30.145Z,20.20
2018-06-19T20:38:33.641Z,20.20
2018-06-19T20:41:36.841Z,20.10
2018-06-19T20:44:41.993Z,20.00
2018-06-19T20:47:45.158Z,20.00
2018-06-19T20:50:48.240Z,20.10
2018-06-19T20:53:51.437Z,20.10
2018-06-19T20:56:55.063Z,20.10
2018-06-19T20:59:58.162Z,20.20
2018-06-19T21:03:01.275Z,20.20
2018-06-19T21:06:04.906Z,20.20
2018-06-19T21:09:09.014Z,20.10
2018-06-19T21:12:12.298Z,20.10
2018-06-19T21:15:15.361Z,20.10
2018-06-19T21:18:18.338Z,20.10
2018-06-19T21:21:21.427Z,20.10
2018-06-19T21:24:25.018Z,20.00
2018-06-19T21:27:27.949Z,20.10
2018-06-19T21:30:30.900Z,20.10
2018-06-19T21:33:35.089Z,20.20
2018-06-19T21:36:38.109Z,20.10
2018-06-19T21:39:44.112Z,20.10
2018-06-19T21:42:47.077Z,20.10
2018-06-19T21:45:50.196Z,19.90
2018-06-19T21:48:53.272Z,19.90
2018-06-19T21:51:56.374Z,19.90
2018-06-19T21:54:59.282Z,20.00
2018-06-19T21:58:02.413Z,20.00
2018-06-19T22:01:05.642Z,20.00
2018-06-19T22:07:11.878Z,19.90
2018-06-19T22:10:14.838Z,20.00
2018-06-19T22:13:21.010Z,19.90
2018-06-19T22:16:24.017Z,19.90
2018-06-19T22:19:26.974Z,20.00
2018-06-19T22:22:30.051Z,20.00
2018-06-19T22:25:32.961Z,20.00
2018-06-19T22:28:35.900Z,20.00
2018-06-19T22:31:39.060Z,20.00
2018-06-19T22:34:43.050Z,19.90
2018-06-19T22:37:46.108Z,19.90
2018-06-19T22:40:49.223Z,19.90
2018-06-19T22:43:52.358Z,20.00
2018-06-19T22:46:55.394Z,19.90
2018-06-19T22:49:58.574Z,19.90
2018-06-19T22:53:01.598Z,19.90
2018-06-19T22:56:04.677Z,19.80
2018-06-19T22:59:07.630Z,20.00
2018-06-19T23:02:10.803Z,20.00
2018-06-19T23:05:13.830Z,19.90
2018-06-19T23:08:16.932Z,19.90
2018-06-19T23:11:20.069Z,19.90
2018-06-19T23:14:23.028Z,19.90
2018-06-19T23:17:25.999Z,19.90
2018-06-19T23:20:29.098Z,19.90
2018-06-19T23:23:32.329Z,19.90
2018-06-19T23:26:35.313Z,19.90
2018-06-19T23:29:38.492Z,19.90
2018-06-19T23:32:41.688Z,19.90
2018-06-19T23:35:44.770Z,19.90
2018-06-19T23:38:47.747Z,19.90
2018-06-19T23:41:50.933Z,19.90
2018-06-19T23:44:54.215Z,19.90
2018-06-19T23:47:57.246Z,19.80
2018-06-19T23:51:00.343Z,19.80
2018-06-19T23:54:03.581Z,19.90
2018-06-19T23:57:06.939Z,19.80
